N928CJ KLGA-KDCA
Flight info
| Callsign | N928CJ |
|---|---|
| Flight time | 0h 46m |
| Altitude | 36000 |
| Route | BIGGY Q75 MXE CLIPR3 |
| Aircraft | C700/M-SBDGHM1RWXY/LB2 |
Departure
| Time | 2026-05-05 02:45 |
|---|---|
| Airport | LaGuardia Airport (KLGA) |
Arrival
| Time | 2026-05-05 03:31 |
|---|---|
| Airport | Ronald Reagan Washington National Airport (KDCA) |
| Time | Latitude | Longitude | Altitude | Speed | Heading |
|---|---|---|---|---|---|
| 2026-05-05 02:23 | 40.77545 | -73.87458 | 12 ft | 0 kts | 76° |
| 2026-05-05 02:32 | 40.77544 | -73.87463 | 12 ft | 3 kts | 78° |
| 2026-05-05 02:32 | 40.77539 | -73.87487 | 12 ft | 4 kts | 79° |
| 2026-05-05 02:32 | 40.77535 | -73.87522 | 13 ft | 4 kts | 85° |
| 2026-05-05 02:33 | 40.77532 | -73.87556 | 13 ft | 4 kts | 62° |
| 2026-05-05 02:33 | 40.77523 | -73.87571 | 13 ft | 1 kts | 34° |
| 2026-05-05 02:33 | 40.77521 | -73.87573 | 13 ft | 0 kts | 34° |
| 2026-05-05 02:37 | 40.77546 | -73.87569 | 13 ft | 7 kts | 342° |
| 2026-05-05 02:38 | 40.77592 | -73.87602 | 13 ft | 0 kts | 326° |
| 2026-05-05 02:38 | 40.77608 | -73.87632 | 13 ft | 10 kts | 300° |
| 2026-05-05 02:38 | 40.77647 | -73.87717 | 14 ft | 9 kts | 302° |
| 2026-05-05 02:39 | 40.77689 | -73.87807 | 14 ft | 14 kts | 301° |
| 2026-05-05 02:39 | 40.77726 | -73.87868 | 13 ft | 6 kts | 334° |
| 2026-05-05 02:39 | 40.77774 | -73.87852 | 13 ft | 9 kts | 36° |
| 2026-05-05 02:39 | 40.77838 | -73.87800 | 13 ft | 13 kts | 32° |
| 2026-05-05 02:40 | 40.77932 | -73.87723 | 12 ft | 18 kts | 32° |
| 2026-05-05 02:40 | 40.78022 | -73.87671 | 12 ft | 11 kts | 337° |
| 2026-05-05 02:40 | 40.78073 | -73.87760 | 13 ft | 14 kts | 303° |
| 2026-05-05 02:40 | 40.78087 | -73.87788 | 13 ft | 2 kts | 302° |
| 2026-05-05 02:41 | 40.78130 | -73.87852 | 14 ft | 12 kts | 339° |
| 2026-05-05 02:41 | 40.78137 | -73.87855 | 17 ft | 0 kts | 344° |
| 2026-05-05 02:44 | 40.78138 | -73.87855 | 17 ft | 2 kts | 344° |
| 2026-05-05 02:44 | 40.78189 | -73.87860 | 16 ft | 11 kts | 24° |
| 2026-05-05 02:44 | 40.78187 | -73.87760 | 14 ft | 14 kts | 122° |
| 2026-05-05 02:44 | 40.78052 | -73.87484 | 9 ft | 85 kts | 123° |
| 2026-05-05 02:45 | 40.77557 | -73.86465 | 270 ft | 166 kts | 124° |
| 2026-05-05 02:45 | 40.76904 | -73.84960 | 1062 ft | 219 kts | 124° |
| 2026-05-05 02:45 | 40.76110 | -73.83024 | 1921 ft | 253 kts | 124° |
| 2026-05-05 02:45 | 40.75256 | -73.80948 | 2622 ft | 253 kts | 121° |
| 2026-05-05 02:46 | 40.75258 | -73.78750 | 3250 ft | 244 kts | 71° |
| 2026-05-05 02:46 | 40.76204 | -73.76947 | 3504 ft | 241 kts | 30° |
| 2026-05-05 02:46 | 40.77682 | -73.76073 | 3996 ft | 227 kts | 17° |
| 2026-05-05 02:46 | 40.79188 | -73.75402 | 4332 ft | 236 kts | 12° |
| 2026-05-05 02:47 | 40.80775 | -73.74781 | 4872 ft | 236 kts | 12° |
| 2026-05-05 02:47 | 40.82292 | -73.74587 | 6663 ft | 210 kts | 339° |
| 2026-05-05 02:47 | 40.83392 | -73.75664 | 8294 ft | 203 kts | 298° |
| 2026-05-05 02:47 | 40.83888 | -73.77498 | 9617 ft | 225 kts | 277° |
| 2026-05-05 02:48 | 40.83650 | -73.79646 | 10852 ft | 253 kts | 250° |
| 2026-05-05 02:48 | 40.82814 | -73.81838 | 12093 ft | 282 kts | 243° |
| 2026-05-05 02:48 | 40.81834 | -73.84199 | 13585 ft | 299 kts | 244° |
| 2026-05-05 02:48 | 40.80923 | -73.86683 | 15283 ft | 304 kts | 248° |
| 2026-05-05 02:49 | 40.80080 | -73.89250 | 16845 ft | 313 kts | 249° |
| 2026-05-05 02:49 | 40.79187 | -73.91909 | 18396 ft | 321 kts | 248° |
| 2026-05-05 02:49 | 40.78234 | -73.94620 | 19651 ft | 330 kts | 247° |
| 2026-05-05 02:49 | 40.77178 | -73.97360 | 20801 ft | 340 kts | 243° |
| 2026-05-05 02:50 | 40.75913 | -74.00048 | 21909 ft | 349 kts | 240° |
| 2026-05-05 02:50 | 40.74606 | -74.02784 | 23025 ft | 356 kts | 242° |
| 2026-05-05 02:50 | 40.73347 | -74.05636 | 24015 ft | 363 kts | 243° |
| 2026-05-05 02:50 | 40.72084 | -74.08553 | 24946 ft | 369 kts | 243° |
| 2026-05-05 02:51 | 40.70771 | -74.11484 | 25890 ft | 375 kts | 242° |
| 2026-05-05 02:51 | 40.69421 | -74.14455 | 26792 ft | 380 kts | 242° |
| 2026-05-05 02:51 | 40.68084 | -74.17433 | 27676 ft | 386 kts | 242° |
| 2026-05-05 02:51 | 40.66714 | -74.20503 | 28516 ft | 392 kts | 242° |
| 2026-05-05 02:52 | 40.65315 | -74.23620 | 29372 ft | 398 kts | 242° |
| 2026-05-05 02:52 | 40.63892 | -74.26775 | 30191 ft | 404 kts | 242° |
| 2026-05-05 02:52 | 40.62452 | -74.29972 | 30888 ft | 409 kts | 242° |
| 2026-05-05 02:52 | 40.60992 | -74.33212 | 31563 ft | 414 kts | 242° |
| 2026-05-05 02:53 | 40.59516 | -74.36486 | 32209 ft | 419 kts | 242° |
| 2026-05-05 02:53 | 40.58018 | -74.39801 | 32832 ft | 423 kts | 242° |
| 2026-05-05 02:53 | 40.56505 | -74.43146 | 33446 ft | 428 kts | 242° |
| 2026-05-05 02:53 | 40.54976 | -74.46525 | 33992 ft | 432 kts | 242° |
| 2026-05-05 02:54 | 40.53433 | -74.49930 | 34518 ft | 435 kts | 242° |
| 2026-05-05 02:54 | 40.51879 | -74.53352 | 35088 ft | 436 kts | 242° |
| 2026-05-05 02:54 | 40.50321 | -74.56782 | 35627 ft | 438 kts | 242° |
| 2026-05-05 02:54 | 40.48753 | -74.60233 | 35898 ft | 445 kts | 242° |
| 2026-05-05 02:55 | 40.47166 | -74.63723 | 35901 ft | 455 kts | 242° |
| 2026-05-05 02:55 | 40.43896 | -74.70883 | 35926 ft | 456 kts | 242° |
| 2026-05-05 02:56 | 40.40650 | -74.77988 | 35931 ft | 452 kts | 242° |
| 2026-05-05 02:56 | 40.37420 | -74.85040 | 35926 ft | 451 kts | 242° |
| 2026-05-05 02:57 | 40.34174 | -74.92108 | 35932 ft | 453 kts | 241° |
| 2026-05-05 02:57 | 40.30909 | -74.99203 | 35928 ft | 456 kts | 241° |
| 2026-05-05 02:58 | 40.27653 | -75.06261 | 35926 ft | 455 kts | 241° |
| 2026-05-05 02:58 | 40.24382 | -75.13337 | 35922 ft | 453 kts | 241° |
| 2026-05-05 02:58 | 40.22746 | -75.16868 | 35757 ft | 454 kts | 241° |
| 2026-05-05 02:59 | 40.21114 | -75.20388 | 35180 ft | 449 kts | 241° |
| 2026-05-05 02:59 | 40.19509 | -75.23843 | 34598 ft | 441 kts | 241° |
| 2026-05-05 02:59 | 40.17929 | -75.27243 | 34015 ft | 434 kts | 241° |
| 2026-05-05 02:59 | 40.16364 | -75.30610 | 33415 ft | 433 kts | 241° |
| 2026-05-05 03:00 | 40.14789 | -75.33996 | 32844 ft | 439 kts | 240° |
| 2026-05-05 03:00 | 40.13115 | -75.37385 | 32253 ft | 448 kts | 236° |
| 2026-05-05 03:00 | 40.11091 | -75.40449 | 31672 ft | 455 kts | 229° |
| 2026-05-05 03:00 | 40.08909 | -75.43450 | 31071 ft | 456 kts | 228° |
| 2026-05-05 03:01 | 40.06730 | -75.46463 | 30470 ft | 457 kts | 228° |
| 2026-05-05 03:01 | 40.04554 | -75.49488 | 29843 ft | 457 kts | 228° |
| 2026-05-05 03:01 | 40.02385 | -75.52494 | 29222 ft | 453 kts | 228° |
| 2026-05-05 03:01 | 40.00237 | -75.55455 | 28625 ft | 446 kts | 228° |
| 2026-05-05 03:02 | 39.98121 | -75.58374 | 28044 ft | 440 kts | 228° |
| 2026-05-05 03:02 | 39.96033 | -75.61256 | 27469 ft | 435 kts | 228° |
| 2026-05-05 03:02 | 39.93965 | -75.64108 | 26900 ft | 431 kts | 228° |
| 2026-05-05 03:02 | 39.91942 | -75.66972 | 26328 ft | 427 kts | 231° |
| 2026-05-05 03:03 | 39.90229 | -75.70109 | 25770 ft | 423 kts | 237° |
| 2026-05-05 03:03 | 39.88591 | -75.73283 | 25197 ft | 421 kts | 237° |
| 2026-05-05 03:03 | 39.86972 | -75.76375 | 24647 ft | 417 kts | 237° |
| 2026-05-05 03:03 | 39.85347 | -75.79479 | 24105 ft | 413 kts | 237° |
| 2026-05-05 03:04 | 39.83744 | -75.82558 | 23562 ft | 409 kts | 237° |
| 2026-05-05 03:04 | 39.82159 | -75.85602 | 22982 ft | 404 kts | 237° |
| 2026-05-05 03:04 | 39.80590 | -75.88601 | 22450 ft | 398 kts | 237° |
| 2026-05-05 03:04 | 39.79040 | -75.91560 | 21928 ft | 394 kts | 237° |
| 2026-05-05 03:05 | 39.77503 | -75.94496 | 21406 ft | 391 kts | 237° |
| 2026-05-05 03:05 | 39.75977 | -75.97409 | 20893 ft | 389 kts | 236° |
| 2026-05-05 03:05 | 39.74457 | -76.00305 | 20377 ft | 387 kts | 236° |
| 2026-05-05 03:05 | 39.72968 | -76.03140 | 19879 ft | 384 kts | 236° |
| 2026-05-05 03:06 | 39.71469 | -76.05991 | 19374 ft | 380 kts | 236° |
| 2026-05-05 03:06 | 39.69988 | -76.08807 | 18876 ft | 376 kts | 236° |
| 2026-05-05 03:06 | 39.68516 | -76.11602 | 18381 ft | 373 kts | 236° |
| 2026-05-05 03:06 | 39.67057 | -76.14370 | 17866 ft | 370 kts | 236° |
| 2026-05-05 03:07 | 39.65614 | -76.17104 | 17371 ft | 366 kts | 236° |
| 2026-05-05 03:07 | 39.64185 | -76.19813 | 16886 ft | 362 kts | 236° |
| 2026-05-05 03:07 | 39.62764 | -76.22502 | 16413 ft | 361 kts | 236° |
| 2026-05-05 03:07 | 39.61345 | -76.25186 | 15937 ft | 361 kts | 237° |
| 2026-05-05 03:08 | 39.59936 | -76.27819 | 15454 ft | 359 kts | 235° |
| 2026-05-05 03:08 | 39.58268 | -76.30216 | 14979 ft | 358 kts | 226° |
| 2026-05-05 03:08 | 39.56314 | -76.32208 | 14515 ft | 358 kts | 217° |
| 2026-05-05 03:08 | 39.54244 | -76.33986 | 14047 ft | 356 kts | 217° |
| 2026-05-05 03:09 | 39.52195 | -76.35770 | 13556 ft | 354 kts | 218° |
| 2026-05-05 03:09 | 39.50160 | -76.37550 | 13075 ft | 352 kts | 218° |
| 2026-05-05 03:09 | 39.48136 | -76.39310 | 12615 ft | 350 kts | 218° |
| 2026-05-05 03:09 | 39.46121 | -76.41056 | 12154 ft | 348 kts | 218° |
| 2026-05-05 03:10 | 39.44110 | -76.42802 | 11906 ft | 349 kts | 218° |
| 2026-05-05 03:10 | 39.42079 | -76.44571 | 11908 ft | 363 kts | 218° |
| 2026-05-05 03:10 | 39.39969 | -76.46398 | 11901 ft | 365 kts | 218° |
| 2026-05-05 03:10 | 39.37860 | -76.48218 | 11909 ft | 364 kts | 218° |
| 2026-05-05 03:11 | 39.35756 | -76.50038 | 11935 ft | 362 kts | 218° |
| 2026-05-05 03:11 | 39.33717 | -76.51798 | 11929 ft | 343 kts | 218° |
| 2026-05-05 03:11 | 39.31797 | -76.53452 | 11916 ft | 320 kts | 218° |
| 2026-05-05 03:11 | 39.30016 | -76.54989 | 11914 ft | 296 kts | 219° |
| 2026-05-05 03:12 | 39.28358 | -76.56423 | 11913 ft | 280 kts | 219° |
| 2026-05-05 03:12 | 39.26757 | -76.57812 | 11901 ft | 278 kts | 219° |
| 2026-05-05 03:12 | 39.25119 | -76.59234 | 11682 ft | 290 kts | 219° |
| 2026-05-05 03:12 | 39.23418 | -76.60701 | 11324 ft | 296 kts | 219° |
| 2026-05-05 03:13 | 39.21738 | -76.62138 | 10941 ft | 291 kts | 219° |
| 2026-05-05 03:13 | 39.20071 | -76.63567 | 10559 ft | 284 kts | 219° |
| 2026-05-05 03:13 | 39.18444 | -76.64969 | 10189 ft | 280 kts | 220° |
| 2026-05-05 03:13 | 39.16869 | -76.66407 | 9911 ft | 272 kts | 226° |
| 2026-05-05 03:14 | 39.15506 | -76.68042 | 9911 ft | 267 kts | 229° |
| 2026-05-05 03:14 | 39.14117 | -76.69689 | 9915 ft | 276 kts | 228° |
| 2026-05-05 03:14 | 39.12687 | -76.71370 | 9953 ft | 280 kts | 228° |
| 2026-05-05 03:14 | 39.11251 | -76.73067 | 9953 ft | 280 kts | 228° |
| 2026-05-05 03:15 | 39.09843 | -76.74737 | 9952 ft | 278 kts | 228° |
| 2026-05-05 03:15 | 39.08421 | -76.76421 | 9951 ft | 277 kts | 228° |
| 2026-05-05 03:15 | 39.07007 | -76.78094 | 9950 ft | 276 kts | 228° |
| 2026-05-05 03:15 | 39.05592 | -76.79768 | 9949 ft | 277 kts | 228° |
| 2026-05-05 03:16 | 39.04170 | -76.81450 | 9937 ft | 279 kts | 228° |
| 2026-05-05 03:16 | 39.02737 | -76.83143 | 9938 ft | 281 kts | 228° |
| 2026-05-05 03:16 | 39.01293 | -76.84848 | 9938 ft | 282 kts | 228° |
| 2026-05-05 03:16 | 38.99868 | -76.86572 | 9933 ft | 279 kts | 232° |
| 2026-05-05 03:17 | 38.98723 | -76.88545 | 9919 ft | 272 kts | 243° |
| 2026-05-05 03:17 | 38.97932 | -76.90682 | 9916 ft | 267 kts | 254° |
| 2026-05-05 03:17 | 38.97478 | -76.92967 | 9917 ft | 262 kts | 264° |
| 2026-05-05 03:17 | 38.97373 | -76.95292 | 9918 ft | 260 kts | 274° |
| 2026-05-05 03:18 | 38.97467 | -76.97618 | 9920 ft | 261 kts | 275° |
| 2026-05-05 03:18 | 38.97674 | -76.99927 | 9920 ft | 260 kts | 283° |
| 2026-05-05 03:18 | 38.98233 | -77.02137 | 9912 ft | 261 kts | 293° |
| 2026-05-05 03:18 | 38.99127 | -77.04202 | 9666 ft | 269 kts | 303° |
| 2026-05-05 03:19 | 39.01585 | -77.07487 | 8994 ft | 238 kts | 314° |
| 2026-05-05 03:19 | 39.02764 | -77.08877 | 8697 ft | 224 kts | 314° |
| 2026-05-05 03:19 | 39.03911 | -77.10219 | 8327 ft | 222 kts | 314° |
| 2026-05-05 03:20 | 39.05047 | -77.11536 | 7969 ft | 217 kts | 314° |
| 2026-05-05 03:20 | 39.05963 | -77.12585 | 7684 ft | 214 kts | 314° |
| 2026-05-05 03:21 | 39.07099 | -77.13875 | 7327 ft | 211 kts | 314° |
| 2026-05-05 03:21 | 39.08198 | -77.15118 | 6985 ft | 210 kts | 314° |
| 2026-05-05 03:21 | 39.09288 | -77.16342 | 6643 ft | 212 kts | 314° |
| 2026-05-05 03:22 | 39.10407 | -77.17595 | 6294 ft | 213 kts | 312° |
| 2026-05-05 03:22 | 39.11117 | -77.19187 | 5928 ft | 204 kts | 277° |
| 2026-05-05 03:22 | 39.10842 | -77.20864 | 5948 ft | 186 kts | 241° |
| 2026-05-05 03:22 | 39.10047 | -77.22116 | 5733 ft | 183 kts | 232° |
| 2026-05-05 03:23 | 39.09111 | -77.23260 | 5360 ft | 188 kts | 224° |
| 2026-05-05 03:23 | 39.08082 | -77.24275 | 4993 ft | 185 kts | 222° |
| 2026-05-05 03:23 | 39.07071 | -77.25263 | 4622 ft | 181 kts | 222° |
| 2026-05-05 03:23 | 39.06072 | -77.26190 | 4235 ft | 181 kts | 213° |
| 2026-05-05 03:24 | 39.04788 | -77.26380 | 3834 ft | 194 kts | 180° |
| 2026-05-05 03:24 | 39.03515 | -77.25763 | 3436 ft | 207 kts | 148° |
| 2026-05-05 03:24 | 39.02525 | -77.24400 | 3082 ft | 208 kts | 136° |
| 2026-05-05 03:24 | 39.01649 | -77.23015 | 2920 ft | 187 kts | 136° |
| 2026-05-05 03:25 | 39.00855 | -77.21794 | 2913 ft | 171 kts | 140° |
| 2026-05-05 03:25 | 39.00080 | -77.20650 | 2914 ft | 171 kts | 140° |
| 2026-05-05 03:25 | 38.99290 | -77.19485 | 2922 ft | 172 kts | 140° |
| 2026-05-05 03:25 | 38.98530 | -77.18342 | 2909 ft | 164 kts | 140° |
| 2026-05-05 03:26 | 38.97814 | -77.17269 | 2907 ft | 158 kts | 141° |
| 2026-05-05 03:26 | 38.97151 | -77.16269 | 2896 ft | 140 kts | 141° |
| 2026-05-05 03:26 | 38.96510 | -77.15332 | 2699 ft | 138 kts | 143° |
| 2026-05-05 03:26 | 38.95823 | -77.14553 | 2579 ft | 129 kts | 152° |
| 2026-05-05 03:27 | 38.95128 | -77.13795 | 2435 ft | 132 kts | 150° |
| 2026-05-05 03:27 | 38.94435 | -77.13025 | 2259 ft | 130 kts | 152° |
| 2026-05-05 03:27 | 38.93759 | -77.12274 | 2086 ft | 128 kts | 152° |
| 2026-05-05 03:27 | 38.93065 | -77.11625 | 1914 ft | 117 kts | 167° |
| 2026-05-05 03:28 | 38.92326 | -77.11194 | 1769 ft | 118 kts | 165° |
| 2026-05-05 03:28 | 38.91633 | -77.10633 | 1623 ft | 122 kts | 153° |
| 2026-05-05 03:28 | 38.91034 | -77.09825 | 1440 ft | 133 kts | 140° |
| 2026-05-05 03:28 | 38.90558 | -77.08785 | 1346 ft | 136 kts | 124° |
| 2026-05-05 03:29 | 38.90205 | -77.07653 | 1202 ft | 135 kts | 121° |
| 2026-05-05 03:29 | 38.89776 | -77.06640 | 1076 ft | 125 kts | 132° |
| 2026-05-05 03:29 | 38.89238 | -77.05789 | 908 ft | 121 kts | 141° |
| 2026-05-05 03:29 | 38.88624 | -77.05051 | 689 ft | 122 kts | 139° |
| 2026-05-05 03:30 | 38.88001 | -77.04350 | 486 ft | 116 kts | 152° |
| 2026-05-05 03:30 | 38.87275 | -77.03987 | 336 ft | 108 kts | 171° |
| 2026-05-05 03:30 | 38.86553 | -77.03913 | 152 ft | 106 kts | 175° |
| 2026-05-05 03:30 | 38.85829 | -77.03845 | 32 ft | 99 kts | 177° |
| 2026-05-05 03:31 | 38.85287 | -77.03796 | 18 ft | 60 kts | 175° |
| 2026-05-05 03:31 | 38.84995 | -77.03769 | 17 ft | 14 kts | 172° |
| 2026-05-05 03:31 | 38.84894 | -77.03805 | 16 ft | 18 kts | 234° |
| 2026-05-05 03:31 | 38.84923 | -77.03922 | 15 ft | 16 kts | 336° |
| 2026-05-05 03:32 | 38.85043 | -77.03965 | 15 ft | 20 kts | 355° |
| 2026-05-05 03:32 | 38.85199 | -77.03981 | 18 ft | 25 kts | 356° |
| 2026-05-05 03:32 | 38.85300 | -77.04025 | 18 ft | 12 kts | 301° |
| 2026-05-05 03:32 | 38.85287 | -77.04130 | 19 ft | 2 kts | 240° |
| 2026-05-05 03:33 | 38.85284 | -77.04130 | 19 ft | 0 kts | 193° |
| 2026-05-05 03:33 | 38.85280 | -77.04127 | 21 ft | 3 kts | 158° |
| 2026-05-05 03:33 | 38.85265 | -77.04120 | 19 ft | 0 kts | 190° |
| 2026-05-05 03:33 | 38.85254 | -77.04126 | 19 ft | 0 kts | 200° |